sensor_id;sensor_type;location;lat;lon;timestamp;P1;durP1;ratioP1;P2;durP2;ratioP2
77466;SDS011;66564;42.482;25.548;2023-02-03T00:01:32;2.00;;;1.40;;
77466;SDS011;66564;42.482;25.548;2023-02-03T00:03:57;8.93;;;1.90;;
77466;SDS011;66564;42.482;25.548;2023-02-03T00:06:23;2.85;;;1.90;;
77466;SDS011;66564;42.482;25.548;2023-02-03T00:08:51;2.95;;;1.65;;
77466;SDS011;66564;42.482;25.548;2023-02-03T00:11:18;1.70;;;1.33;;
77466;SDS011;66564;42.482;25.548;2023-02-03T00:13:44;4.03;;;1.60;;
77466;SDS011;66564;42.482;25.548;2023-02-03T00:16:09;4.32;;;1.65;;
77466;SDS011;66564;42.482;25.548;2023-02-03T00:18:35;2.10;;;1.50;;
77466;SDS011;66564;42.482;25.548;2023-02-03T00:21:00;7.82;;;2.30;;
77466;SDS011;66564;42.482;25.548;2023-02-03T00:23:26;2.78;;;1.48;;
77466;SDS011;66564;42.482;25.548;2023-02-03T00:25:56;2.92;;;1.67;;
77466;SDS011;66564;42.482;25.548;2023-02-03T00:28:22;3.92;;;2.03;;
77466;SDS011;66564;42.482;25.548;2023-02-03T00:30:47;5.03;;;1.70;;
77466;SDS011;66564;42.482;25.548;2023-02-03T00:33:13;2.60;;;1.90;;
77466;SDS011;66564;42.482;25.548;2023-02-03T00:35:39;2.10;;;1.50;;
77466;SDS011;66564;42.482;25.548;2023-02-03T00:38:04;2.38;;;1.80;;
77466;SDS011;66564;42.482;25.548;2023-02-03T00:40:30;2.33;;;1.50;;
77466;SDS011;66564;42.482;25.548;2023-02-03T00:42:56;2.30;;;1.90;;
77466;SDS011;66564;42.482;25.548;2023-02-03T00:45:21;2.88;;;1.63;;
77466;SDS011;66564;42.482;25.548;2023-02-03T00:47:47;4.65;;;1.92;;
77466;SDS011;66564;42.482;25.548;2023-02-03T00:50:12;2.17;;;1.50;;
77466;SDS011;66564;42.482;25.548;2023-02-03T00:52:38;7.45;;;1.92;;
77466;SDS011;66564;42.482;25.548;2023-02-03T00:55:04;2.35;;;1.50;;
77466;SDS011;66564;42.482;25.548;2023-02-03T00:57:30;3.95;;;1.80;;
77466;SDS011;66564;42.482;25.548;2023-02-03T00:59:55;2.17;;;1.52;;
77466;SDS011;66564;42.482;25.548;2023-02-03T01:02:22;3.20;;;1.80;;
77466;SDS011;66564;42.482;25.548;2023-02-03T01:04:48;2.75;;;1.60;;
77466;SDS011;66564;42.482;25.548;2023-02-03T01:07:13;5.45;;;1.52;;
77466;SDS011;66564;42.482;25.548;2023-02-03T01:09:39;2.40;;;1.60;;
77466;SDS011;66564;42.482;25.548;2023-02-03T01:12:06;3.75;;;1.58;;
77466;SDS011;66564;42.482;25.548;2023-02-03T01:14:32;3.17;;;1.50;;
77466;SDS011;66564;42.482;25.548;2023-02-03T01:16:57;3.15;;;1.77;;
77466;SDS011;66564;42.482;25.548;2023-02-03T01:19:24;4.30;;;1.60;;
77466;SDS011;66564;42.482;25.548;2023-02-03T01:21:49;6.47;;;2.10;;
77466;SDS011;66564;42.482;25.548;2023-02-03T01:24:15;4.03;;;1.70;;
77466;SDS011;66564;42.482;25.548;2023-02-03T01:26:41;3.78;;;1.85;;
77466;SDS011;66564;42.482;25.548;2023-02-03T01:29:06;5.47;;;1.90;;
77466;SDS011;66564;42.482;25.548;2023-02-03T01:31:36;2.58;;;1.77;;
77466;SDS011;66564;42.482;25.548;2023-02-03T01:34:04;2.00;;;1.55;;
77466;SDS011;66564;42.482;25.548;2023-02-03T01:36:31;3.90;;;1.80;;
77466;SDS011;66564;42.482;25.548;2023-02-03T01:38:58;3.08;;;1.70;;
77466;SDS011;66564;42.482;25.548;2023-02-03T01:41:26;2.60;;;1.90;;
77466;SDS011;66564;42.482;25.548;2023-02-03T01:43:55;4.28;;;1.35;;
77466;SDS011;66564;42.482;25.548;2023-02-03T01:46:34;2.65;;;1.40;;
77466;SDS011;66564;42.482;25.548;2023-02-03T01:49:10;2.25;;;1.35;;
77466;SDS011;66564;42.482;25.548;2023-02-03T01:51:39;2.28;;;1.77;;
77466;SDS011;66564;42.482;25.548;2023-02-03T01:54:06;2.63;;;1.58;;
77466;SDS011;66564;42.482;25.548;2023-02-03T01:56:36;2.13;;;1.52;;
77466;SDS011;66564;42.482;25.548;2023-02-03T01:59:05;2.45;;;1.60;;
77466;SDS011;66564;42.482;25.548;2023-02-03T02:01:31;3.45;;;1.60;;
77466;SDS011;66564;42.482;25.548;2023-02-03T02:03:58;2.38;;;1.60;;
77466;SDS011;66564;42.482;25.548;2023-02-03T02:06:25;2.85;;;1.65;;
77466;SDS011;66564;42.482;25.548;2023-02-03T02:08:51;6.00;;;1.40;;
77466;SDS011;66564;42.482;25.548;2023-02-03T02:11:18;2.65;;;1.30;;
77466;SDS011;66564;42.482;25.548;2023-02-03T02:13:45;5.25;;;1.73;;
77466;SDS011;66564;42.482;25.548;2023-02-03T02:35:51;2.75;;;1.85;;
77466;SDS011;66564;42.482;25.548;2023-02-03T02:41:23;1.75;;;1.48;;
77466;SDS011;66564;42.482;25.548;2023-02-03T02:44:06;2.80;;;1.60;;
77466;SDS011;66564;42.482;25.548;2023-02-03T02:46:40;5.57;;;1.52;;
77466;SDS011;66564;42.482;25.548;2023-02-03T02:52:15;2.13;;;1.35;;
77466;SDS011;66564;42.482;25.548;2023-02-03T02:54:44;3.08;;;1.60;;
77466;SDS011;66564;42.482;25.548;2023-02-03T02:57:13;7.25;;;1.75;;
77466;SDS011;66564;42.482;25.548;2023-02-03T02:59:40;2.85;;;1.50;;
77466;SDS011;66564;42.482;25.548;2023-02-03T03:02:07;2.63;;;1.70;;
77466;SDS011;66564;42.482;25.548;2023-02-03T03:04:34;3.63;;;1.98;;
77466;SDS011;66564;42.482;25.548;2023-02-03T03:07:05;4.95;;;1.60;;
77466;SDS011;66564;42.482;25.548;2023-02-03T03:09:39;4.00;;;1.55;;
77466;SDS011;66564;42.482;25.548;2023-02-03T03:14:40;2.20;;;1.70;;
77466;SDS011;66564;42.482;25.548;2023-02-03T03:17:10;2.05;;;1.48;;
77466;SDS011;66564;42.482;25.548;2023-02-03T03:19:44;2.20;;;1.48;;
77466;SDS011;66564;42.482;25.548;2023-02-03T03:22:15;2.88;;;1.70;;
77466;SDS011;66564;42.482;25.548;2023-02-03T03:24:44;2.20;;;1.60;;
77466;SDS011;66564;42.482;25.548;2023-02-03T03:27:22;3.83;;;1.95;;
77466;SDS011;66564;42.482;25.548;2023-02-03T03:29:53;6.22;;;2.10;;
77466;SDS011;66564;42.482;25.548;2023-02-03T03:32:41;2.50;;;1.77;;
77466;SDS011;66564;42.482;25.548;2023-02-03T03:35:06;6.35;;;2.05;;
77466;SDS011;66564;42.482;25.548;2023-02-03T03:37:37;3.10;;;1.67;;
77466;SDS011;66564;42.482;25.548;2023-02-03T03:40:33;4.97;;;1.83;;
77466;SDS011;66564;42.482;25.548;2023-02-03T03:43:17;2.83;;;1.80;;
77466;SDS011;66564;42.482;25.548;2023-02-03T03:50:52;4.28;;;1.98;;
77466;SDS011;66564;42.482;25.548;2023-02-03T03:53:23;2.80;;;1.90;;
77466;SDS011;66564;42.482;25.548;2023-02-03T03:55:51;2.63;;;2.00;;
77466;SDS011;66564;42.482;25.548;2023-02-03T03:58:36;3.38;;;2.08;;
77466;SDS011;66564;42.482;25.548;2023-02-03T04:01:05;4.70;;;2.20;;
77466;SDS011;66564;42.482;25.548;2023-02-03T04:03:34;3.45;;;1.83;;
77466;SDS011;66564;42.482;25.548;2023-02-03T04:06:07;3.67;;;2.00;;
77466;SDS011;66564;42.482;25.548;2023-02-03T04:08:32;8.50;;;2.38;;
77466;SDS011;66564;42.482;25.548;2023-02-03T04:10:58;11.45;;;2.33;;
77466;SDS011;66564;42.482;25.548;2023-02-03T04:13:23;2.80;;;2.05;;
77466;SDS011;66564;42.482;25.548;2023-02-03T04:15:49;3.97;;;1.90;;
77466;SDS011;66564;42.482;25.548;2023-02-03T04:18:15;4.00;;;2.13;;
77466;SDS011;66564;42.482;25.548;2023-02-03T04:20:41;4.50;;;2.47;;
77466;SDS011;66564;42.482;25.548;2023-02-03T04:23:07;4.13;;;2.10;;
77466;SDS011;66564;42.482;25.548;2023-02-03T04:25:33;3.90;;;1.83;;
77466;SDS011;66564;42.482;25.548;2023-02-03T04:27:58;5.85;;;2.30;;
77466;SDS011;66564;42.482;25.548;2023-02-03T04:30:25;5.25;;;2.15;;
77466;SDS011;66564;42.482;25.548;2023-02-03T04:32:51;6.60;;;2.53;;
77466;SDS011;66564;42.482;25.548;2023-02-03T04:35:17;3.85;;;1.80;;
77466;SDS011;66564;42.482;25.548;2023-02-03T04:37:43;3.70;;;2.17;;
77466;SDS011;66564;42.482;25.548;2023-02-03T04:40:08;3.20;;;2.30;;
77466;SDS011;66564;42.482;25.548;2023-02-03T04:42:37;2.80;;;2.10;;
77466;SDS011;66564;42.482;25.548;2023-02-03T04:45:03;4.28;;;2.63;;
77466;SDS011;66564;42.482;25.548;2023-02-03T04:47:30;5.32;;;2.22;;
77466;SDS011;66564;42.482;25.548;2023-02-03T04:49:55;6.22;;;2.17;;
77466;SDS011;66564;42.482;25.548;2023-02-03T04:52:21;4.25;;;2.10;;
77466;SDS011;66564;42.482;25.548;2023-02-03T04:54:46;3.35;;;1.95;;
77466;SDS011;66564;42.482;25.548;2023-02-03T04:57:12;2.72;;;2.03;;
77466;SDS011;66564;42.482;25.548;2023-02-03T04:59:37;6.35;;;1.85;;
77466;SDS011;66564;42.482;25.548;2023-02-03T05:02:03;3.25;;;2.13;;
77466;SDS011;66564;42.482;25.548;2023-02-03T05:04:29;4.32;;;2.13;;
77466;SDS011;66564;42.482;25.548;2023-02-03T05:06:55;3.45;;;2.00;;
77466;SDS011;66564;42.482;25.548;2023-02-03T05:09:21;5.18;;;2.45;;
77466;SDS011;66564;42.482;25.548;2023-02-03T05:11:47;2.35;;;1.80;;
77466;SDS011;66564;42.482;25.548;2023-02-03T05:14:13;4.30;;;1.95;;
77466;SDS011;66564;42.482;25.548;2023-02-03T05:16:38;4.53;;;2.00;;
77466;SDS011;66564;42.482;25.548;2023-02-03T05:19:04;2.80;;;1.63;;
77466;SDS011;66564;42.482;25.548;2023-02-03T05:21:30;6.55;;;2.30;;
77466;SDS011;66564;42.482;25.548;2023-02-03T05:23:55;2.97;;;1.75;;
77466;SDS011;66564;42.482;25.548;2023-02-03T05:27:21;2.92;;;2.20;;
77466;SDS011;66564;42.482;25.548;2023-02-03T05:30:46;3.00;;;2.08;;
77466;SDS011;66564;42.482;25.548;2023-02-03T05:34:11;3.08;;;1.85;;
77466;SDS011;66564;42.482;25.548;2023-02-03T05:36:37;4.18;;;2.15;;
77466;SDS011;66564;42.482;25.548;2023-02-03T05:40:02;2.83;;;1.92;;
77466;SDS011;66564;42.482;25.548;2023-02-03T05:43:29;2.38;;;1.90;;
77466;SDS011;66564;42.482;25.548;2023-02-03T05:46:55;3.28;;;2.17;;
77466;SDS011;66564;42.482;25.548;2023-02-03T05:50:19;2.33;;;1.80;;
77466;SDS011;66564;42.482;25.548;2023-02-03T05:53:45;3.53;;;1.90;;
77466;SDS011;66564;42.482;25.548;2023-02-03T05:57:10;4.13;;;2.00;;
77466;SDS011;66564;42.482;25.548;2023-02-03T06:00:35;5.88;;;2.63;;
77466;SDS011;66564;42.482;25.548;2023-02-03T06:04:01;3.35;;;2.28;;
77466;SDS011;66564;42.482;25.548;2023-02-03T06:07:26;4.47;;;2.42;;
77466;SDS011;66564;42.482;25.548;2023-02-03T06:10:51;5.05;;;3.00;;
77466;SDS011;66564;42.482;25.548;2023-02-03T06:14:16;6.13;;;2.70;;
77466;SDS011;66564;42.482;25.548;2023-02-03T06:17:46;6.90;;;3.03;;
77466;SDS011;66564;42.482;25.548;2023-02-03T06:21:10;4.32;;;2.88;;
77466;SDS011;66564;42.482;25.548;2023-02-03T06:24:35;4.07;;;2.85;;
77466;SDS011;66564;42.482;25.548;2023-02-03T06:28:02;5.38;;;2.97;;
77466;SDS011;66564;42.482;25.548;2023-02-03T06:31:27;9.00;;;2.67;;
77466;SDS011;66564;42.482;25.548;2023-02-03T06:34:52;7.72;;;3.08;;
77466;SDS011;66564;42.482;25.548;2023-02-03T06:38:18;5.22;;;2.72;;
77466;SDS011;66564;42.482;25.548;2023-02-03T06:41:43;4.63;;;3.25;;
77466;SDS011;66564;42.482;25.548;2023-02-03T06:45:08;5.30;;;3.20;;
77466;SDS011;66564;42.482;25.548;2023-02-03T06:48:33;5.88;;;3.55;;
77466;SDS011;66564;42.482;25.548;2023-02-03T06:52:02;4.28;;;2.97;;
77466;SDS011;66564;42.482;25.548;2023-02-03T06:55:27;4.88;;;3.45;;
77466;SDS011;66564;42.482;25.548;2023-02-03T06:58:52;5.55;;;3.22;;
77466;SDS011;66564;42.482;25.548;2023-02-03T07:02:18;3.55;;;2.70;;
77466;SDS011;66564;42.482;25.548;2023-02-03T07:05:43;5.30;;;3.40;;
77466;SDS011;66564;42.482;25.548;2023-02-03T07:09:08;4.50;;;3.20;;
77466;SDS011;66564;42.482;25.548;2023-02-03T07:12:33;6.22;;;3.33;;
77466;SDS011;66564;42.482;25.548;2023-02-03T07:15:59;9.52;;;2.97;;
77466;SDS011;66564;42.482;25.548;2023-02-03T07:19:24;5.85;;;3.60;;
77466;SDS011;66564;42.482;25.548;2023-02-03T07:21:49;6.20;;;3.05;;
77466;SDS011;66564;42.482;25.548;2023-02-03T07:25:15;5.95;;;3.58;;
77466;SDS011;66564;42.482;25.548;2023-02-03T07:28:40;5.85;;;3.67;;
77466;SDS011;66564;42.482;25.548;2023-02-03T07:32:05;7.70;;;4.05;;
77466;SDS011;66564;42.482;25.548;2023-02-03T07:35:33;6.55;;;4.00;;
77466;SDS011;66564;42.482;25.548;2023-02-03T07:38:56;5.70;;;3.83;;
77466;SDS011;66564;42.482;25.548;2023-02-03T07:42:21;6.50;;;3.67;;
77466;SDS011;66564;42.482;25.548;2023-02-03T07:45:46;5.50;;;3.88;;
77466;SDS011;66564;42.482;25.548;2023-02-03T07:49:12;4.45;;;3.20;;
77466;SDS011;66564;42.482;25.548;2023-02-03T07:52:37;5.68;;;3.38;;
77466;SDS011;66564;42.482;25.548;2023-02-03T07:56:03;4.53;;;3.13;;
77466;SDS011;66564;42.482;25.548;2023-02-03T07:59:29;5.30;;;3.17;;
77466;SDS011;66564;42.482;25.548;2023-02-03T08:02:54;5.47;;;3.55;;
77466;SDS011;66564;42.482;25.548;2023-02-03T08:06:19;7.05;;;3.17;;
77466;SDS011;66564;42.482;25.548;2023-02-03T08:09:44;5.75;;;3.60;;
77466;SDS011;66564;42.482;25.548;2023-02-03T08:13:10;9.18;;;3.55;;
77466;SDS011;66564;42.482;25.548;2023-02-03T08:16:35;4.72;;;3.22;;
77466;SDS011;66564;42.482;25.548;2023-02-03T08:20:00;4.93;;;3.00;;
77466;SDS011;66564;42.482;25.548;2023-02-03T08:23:27;4.80;;;3.00;;
77466;SDS011;66564;42.482;25.548;2023-02-03T08:26:52;5.20;;;2.97;;
77466;SDS011;66564;42.482;25.548;2023-02-03T08:30:17;5.97;;;3.78;;
77466;SDS011;66564;42.482;25.548;2023-02-03T08:32:46;4.35;;;3.25;;
77466;SDS011;66564;42.482;25.548;2023-02-03T08:36:11;4.57;;;2.95;;
77466;SDS011;66564;42.482;25.548;2023-02-03T08:39:36;3.97;;;2.80;;
77466;SDS011;66564;42.482;25.548;2023-02-03T08:43:01;4.00;;;2.90;;
77466;SDS011;66564;42.482;25.548;2023-02-03T08:46:27;4.10;;;2.80;;
77466;SDS011;66564;42.482;25.548;2023-02-03T08:49:55;4.15;;;3.08;;
77466;SDS011;66564;42.482;25.548;2023-02-03T08:52:22;5.80;;;2.83;;
77466;SDS011;66564;42.482;25.548;2023-02-03T08:54:47;4.22;;;3.13;;
77466;SDS011;66564;42.482;25.548;2023-02-03T08:57:13;4.30;;;2.90;;
77466;SDS011;66564;42.482;25.548;2023-02-03T08:59:39;4.43;;;2.80;;
77466;SDS011;66564;42.482;25.548;2023-02-03T09:02:07;3.05;;;2.50;;
77466;SDS011;66564;42.482;25.548;2023-02-03T09:04:59;8.70;;;3.17;;
77466;SDS011;66564;42.482;25.548;2023-02-03T09:07:25;3.85;;;3.03;;
77466;SDS011;66564;42.482;25.548;2023-02-03T09:09:50;3.83;;;2.90;;
77466;SDS011;66564;42.482;25.548;2023-02-03T09:13:16;5.70;;;3.22;;
77466;SDS011;66564;42.482;25.548;2023-02-03T09:16:41;5.18;;;2.90;;
77466;SDS011;66564;42.482;25.548;2023-02-03T09:20:06;4.00;;;3.03;;
77466;SDS011;66564;42.482;25.548;2023-02-03T09:23:32;3.90;;;3.00;;
77466;SDS011;66564;42.482;25.548;2023-02-03T09:26:57;4.22;;;2.50;;
77466;SDS011;66564;42.482;25.548;2023-02-03T09:30:22;5.00;;;3.08;;
77466;SDS011;66564;42.482;25.548;2023-02-03T09:32:51;6.43;;;3.15;;
77466;SDS011;66564;42.482;25.548;2023-02-03T09:35:18;4.05;;;2.63;;
77466;SDS011;66564;42.482;25.548;2023-02-03T09:37:45;3.50;;;2.83;;
77466;SDS011;66564;42.482;25.548;2023-02-03T09:40:16;6.65;;;2.90;;
77466;SDS011;66564;42.482;25.548;2023-02-03T09:45:27;4.15;;;2.90;;
77466;SDS011;66564;42.482;25.548;2023-02-03T09:47:57;4.35;;;3.03;;
77466;SDS011;66564;42.482;25.548;2023-02-03T09:50:29;4.47;;;2.97;;
77466;SDS011;66564;42.482;25.548;2023-02-03T09:52:58;4.15;;;2.70;;
77466;SDS011;66564;42.482;25.548;2023-02-03T09:55:41;4.40;;;2.92;;
77466;SDS011;66564;42.482;25.548;2023-02-03T09:58:09;3.60;;;2.40;;
77466;SDS011;66564;42.482;25.548;2023-02-03T10:00:45;7.28;;;3.00;;
77466;SDS011;66564;42.482;25.548;2023-02-03T10:03:18;4.35;;;3.28;;
77466;SDS011;66564;42.482;25.548;2023-02-03T10:06:13;4.50;;;2.85;;
77466;SDS011;66564;42.482;25.548;2023-02-03T10:17:32;4.45;;;2.85;;
77466;SDS011;66564;42.482;25.548;2023-02-03T10:22:55;6.47;;;3.00;;
77466;SDS011;66564;42.482;25.548;2023-02-03T10:25:34;4.88;;;3.10;;
77466;SDS011;66564;42.482;25.548;2023-02-03T10:28:28;3.75;;;2.83;;
77466;SDS011;66564;42.482;25.548;2023-02-03T10:30:57;4.43;;;2.95;;
77466;SDS011;66564;42.482;25.548;2023-02-03T10:33:29;5.88;;;3.30;;
77466;SDS011;66564;42.482;25.548;2023-02-03T10:41:17;6.68;;;3.13;;
77466;SDS011;66564;42.482;25.548;2023-02-03T10:43:48;3.95;;;3.10;;
77466;SDS011;66564;42.482;25.548;2023-02-03T10:46:16;5.05;;;3.03;;
77466;SDS011;66564;42.482;25.548;2023-02-03T10:48:43;4.35;;;3.08;;
77466;SDS011;66564;42.482;25.548;2023-02-03T10:51:19;5.82;;;3.45;;
77466;SDS011;66564;42.482;25.548;2023-02-03T10:53:46;3.60;;;2.90;;
77466;SDS011;66564;42.482;25.548;2023-02-03T10:56:13;4.40;;;3.40;;
77466;SDS011;66564;42.482;25.548;2023-02-03T10:58:45;5.00;;;2.80;;
77466;SDS011;66564;42.482;25.548;2023-02-03T11:01:14;4.13;;;2.63;;
77466;SDS011;66564;42.482;25.548;2023-02-03T11:03:44;4.57;;;3.33;;
77466;SDS011;66564;42.482;25.548;2023-02-03T11:08:47;4.03;;;2.80;;
77466;SDS011;66564;42.482;25.548;2023-02-03T11:11:21;3.78;;;2.95;;
77466;SDS011;66564;42.482;25.548;2023-02-03T11:16:28;7.30;;;3.20;;
77466;SDS011;66564;42.482;25.548;2023-02-03T11:19:02;3.80;;;2.88;;
77466;SDS011;66564;42.482;25.548;2023-02-03T11:29:23;6.18;;;3.25;;
77466;SDS011;66564;42.482;25.548;2023-02-03T11:31:53;7.07;;;4.18;;
77466;SDS011;66564;42.482;25.548;2023-02-03T11:34:27;8.68;;;3.97;;
77466;SDS011;66564;42.482;25.548;2023-02-03T11:37:44;4.80;;;3.47;;
77466;SDS011;66564;42.482;25.548;2023-02-03T11:40:38;4.80;;;3.65;;
77466;SDS011;66564;42.482;25.548;2023-02-03T11:42:40;5.72;;;3.33;;
77466;SDS011;66564;42.482;25.548;2023-02-03T11:51:09;10.52;;;3.08;;
77466;SDS011;66564;42.482;25.548;2023-02-03T11:59:22;3.20;;;2.90;;
77466;SDS011;66564;42.482;25.548;2023-02-03T12:05:05;5.38;;;2.65;;
77466;SDS011;66564;42.482;25.548;2023-02-03T12:07:57;5.18;;;2.55;;
77466;SDS011;66564;42.482;25.548;2023-02-03T12:10:56;3.60;;;2.42;;
77466;SDS011;66564;42.482;25.548;2023-02-03T12:22:23;5.45;;;2.63;;
77466;SDS011;66564;42.482;25.548;2023-02-03T12:25:00;3.58;;;2.50;;
77466;SDS011;66564;42.482;25.548;2023-02-03T12:30:40;4.47;;;2.72;;
77466;SDS011;66564;42.482;25.548;2023-02-03T12:33:18;3.78;;;2.70;;
77466;SDS011;66564;42.482;25.548;2023-02-03T12:35:52;3.35;;;2.53;;
77466;SDS011;66564;42.482;25.548;2023-02-03T12:38:35;4.78;;;2.80;;
77466;SDS011;66564;42.482;25.548;2023-02-03T12:41:11;5.22;;;2.70;;
77466;SDS011;66564;42.482;25.548;2023-02-03T12:46:28;5.15;;;2.80;;
77466;SDS011;66564;42.482;25.548;2023-02-03T12:51:44;3.60;;;2.65;;
77466;SDS011;66564;42.482;25.548;2023-02-03T12:57:18;2.97;;;2.65;;
77466;SDS011;66564;42.482;25.548;2023-02-03T13:06:15;6.55;;;2.88;;
77466;SDS011;66564;42.482;25.548;2023-02-03T13:14:21;5.13;;;2.85;;
77466;SDS011;66564;42.482;25.548;2023-02-03T13:16:54;5.55;;;2.50;;
77466;SDS011;66564;42.482;25.548;2023-02-03T13:19:25;4.85;;;2.50;;
77466;SDS011;66564;42.482;25.548;2023-02-03T13:21:57;4.43;;;2.60;;
77466;SDS011;66564;42.482;25.548;2023-02-03T13:24:24;4.35;;;2.95;;
77466;SDS011;66564;42.482;25.548;2023-02-03T13:26:57;3.90;;;3.13;;
77466;SDS011;66564;42.482;25.548;2023-02-03T13:32:42;3.90;;;2.70;;
77466;SDS011;66564;42.482;25.548;2023-02-03T13:38:41;3.92;;;2.45;;
77466;SDS011;66564;42.482;25.548;2023-02-03T13:41:20;4.05;;;2.72;;
77466;SDS011;66564;42.482;25.548;2023-02-03T13:48:57;4.20;;;2.60;;
77466;SDS011;66564;42.482;25.548;2023-02-03T13:51:30;4.95;;;2.65;;
77466;SDS011;66564;42.482;25.548;2023-02-03T13:54:00;4.53;;;3.35;;
77466;SDS011;66564;42.482;25.548;2023-02-03T13:56:32;5.63;;;3.42;;
77466;SDS011;66564;42.482;25.548;2023-02-03T13:59:03;5.03;;;4.05;;
77466;SDS011;66564;42.482;25.548;2023-02-03T14:01:32;5.18;;;3.30;;
77466;SDS011;66564;42.482;25.548;2023-02-03T14:04:08;6.05;;;3.75;;
77466;SDS011;66564;42.482;25.548;2023-02-03T14:15:18;4.78;;;3.38;;
77466;SDS011;66564;42.482;25.548;2023-02-03T14:25:41;3.90;;;3.05;;
77466;SDS011;66564;42.482;25.548;2023-02-03T14:28:12;5.15;;;3.00;;
77466;SDS011;66564;42.482;25.548;2023-02-03T14:36:28;4.82;;;3.10;;
77466;SDS011;66564;42.482;25.548;2023-02-03T14:39:19;5.90;;;3.80;;
77466;SDS011;66564;42.482;25.548;2023-02-03T14:44:30;8.05;;;3.40;;
77466;SDS011;66564;42.482;25.548;2023-02-03T15:01:02;6.53;;;3.75;;
77466;SDS011;66564;42.482;25.548;2023-02-03T15:03:31;7.15;;;3.55;;
77466;SDS011;66564;42.482;25.548;2023-02-03T15:06:25;5.70;;;3.95;;
77466;SDS011;66564;42.482;25.548;2023-02-03T15:12:23;7.53;;;3.70;;
77466;SDS011;66564;42.482;25.548;2023-02-03T15:17:48;4.70;;;3.42;;
77466;SDS011;66564;42.482;25.548;2023-02-03T15:20:23;4.32;;;3.40;;
77466;SDS011;66564;42.482;25.548;2023-02-03T15:22:55;5.50;;;3.72;;
77466;SDS011;66564;42.482;25.548;2023-02-03T15:25:24;5.40;;;3.25;;
77466;SDS011;66564;42.482;25.548;2023-02-03T15:27:51;4.50;;;3.20;;
77466;SDS011;66564;42.482;25.548;2023-02-03T15:30:19;5.28;;;3.63;;
77466;SDS011;66564;42.482;25.548;2023-02-03T15:35:45;8.55;;;3.67;;
77466;SDS011;66564;42.482;25.548;2023-02-03T15:38:20;6.57;;;3.80;;
77466;SDS011;66564;42.482;25.548;2023-02-03T15:41:21;5.88;;;3.58;;
77466;SDS011;66564;42.482;25.548;2023-02-03T15:43:49;14.82;;;4.68;;
77466;SDS011;66564;42.482;25.548;2023-02-03T15:46:27;7.25;;;3.92;;
77466;SDS011;66564;42.482;25.548;2023-02-03T15:49:09;7.78;;;4.28;;
77466;SDS011;66564;42.482;25.548;2023-02-03T15:51:38;7.38;;;4.15;;
77466;SDS011;66564;42.482;25.548;2023-02-03T15:54:14;6.60;;;4.00;;
77466;SDS011;66564;42.482;25.548;2023-02-03T16:02:52;5.43;;;3.80;;
77466;SDS011;66564;42.482;25.548;2023-02-03T16:06:06;6.07;;;3.42;;
77466;SDS011;66564;42.482;25.548;2023-02-03T16:09:05;6.03;;;3.70;;
77466;SDS011;66564;42.482;25.548;2023-02-03T16:14:47;8.93;;;3.63;;
77466;SDS011;66564;42.482;25.548;2023-02-03T16:17:23;5.13;;;3.65;;
77466;SDS011;66564;42.482;25.548;2023-02-03T16:23:05;7.55;;;3.72;;
77466;SDS011;66564;42.482;25.548;2023-02-03T16:25:53;4.72;;;3.47;;
77466;SDS011;66564;42.482;25.548;2023-02-03T16:28:28;33.70;;;5.28;;
77466;SDS011;66564;42.482;25.548;2023-02-03T16:31:16;19.05;;;4.18;;
77466;SDS011;66564;42.482;25.548;2023-02-03T16:34:09;5.13;;;3.60;;
77466;SDS011;66564;42.482;25.548;2023-02-03T16:36:56;7.18;;;4.25;;
77466;SDS011;66564;42.482;25.548;2023-02-03T16:39:40;7.30;;;4.03;;
77466;SDS011;66564;42.482;25.548;2023-02-03T16:42:25;6.85;;;3.85;;
77466;SDS011;66564;42.482;25.548;2023-02-03T16:45:14;6.85;;;3.90;;
77466;SDS011;66564;42.482;25.548;2023-02-03T16:48:00;6.72;;;3.72;;
77466;SDS011;66564;42.482;25.548;2023-02-03T16:50:45;6.85;;;3.75;;
77466;SDS011;66564;42.482;25.548;2023-02-03T16:53:36;6.22;;;3.65;;
77466;SDS011;66564;42.482;25.548;2023-02-03T16:56:02;11.25;;;4.22;;
77466;SDS011;66564;42.482;25.548;2023-02-03T16:58:29;9.85;;;3.97;;
77466;SDS011;66564;42.482;25.548;2023-02-03T17:00:56;6.15;;;3.58;;
77466;SDS011;66564;42.482;25.548;2023-02-03T17:04:20;4.90;;;3.22;;
77466;SDS011;66564;42.482;25.548;2023-02-03T17:07:45;6.57;;;3.85;;
77466;SDS011;66564;42.482;25.548;2023-02-03T17:11:13;10.90;;;4.28;;
77466;SDS011;66564;42.482;25.548;2023-02-03T17:14:36;6.10;;;3.90;;
77466;SDS011;66564;42.482;25.548;2023-02-03T17:18:01;6.15;;;4.32;;
77466;SDS011;66564;42.482;25.548;2023-02-03T17:21:02;7.22;;;4.53;;
77466;SDS011;66564;42.482;25.548;2023-02-03T17:24:24;6.75;;;3.63;;
77466;SDS011;66564;42.482;25.548;2023-02-03T17:27:50;6.35;;;4.05;;
77466;SDS011;66564;42.482;25.548;2023-02-03T17:31:16;5.57;;;3.53;;
77466;SDS011;66564;42.482;25.548;2023-02-03T17:34:40;6.70;;;3.50;;
77466;SDS011;66564;42.482;25.548;2023-02-03T17:38:06;5.72;;;3.60;;
77466;SDS011;66564;42.482;25.548;2023-02-03T17:41:31;6.50;;;3.55;;
77466;SDS011;66564;42.482;25.548;2023-02-03T17:44:56;7.03;;;3.92;;
77466;SDS011;66564;42.482;25.548;2023-02-03T17:48:21;4.90;;;3.22;;
77466;SDS011;66564;42.482;25.548;2023-02-03T17:51:46;5.05;;;4.00;;
77466;SDS011;66564;42.482;25.548;2023-02-03T17:55:11;5.38;;;3.22;;
77466;SDS011;66564;42.482;25.548;2023-02-03T17:58:37;3.95;;;3.05;;
77466;SDS011;66564;42.482;25.548;2023-02-03T18:02:02;6.22;;;3.42;;
77466;SDS011;66564;42.482;25.548;2023-02-03T18:05:27;5.70;;;3.50;;
77466;SDS011;66564;42.482;25.548;2023-02-03T18:08:55;4.70;;;3.13;;
77466;SDS011;66564;42.482;25.548;2023-02-03T18:12:20;7.30;;;3.58;;
77466;SDS011;66564;42.482;25.548;2023-02-03T18:15:48;5.97;;;3.30;;
77466;SDS011;66564;42.482;25.548;2023-02-03T18:19:14;4.90;;;3.67;;
77466;SDS011;66564;42.482;25.548;2023-02-03T18:22:39;5.63;;;3.20;;
77466;SDS011;66564;42.482;25.548;2023-02-03T18:26:07;5.63;;;3.25;;
77466;SDS011;66564;42.482;25.548;2023-02-03T18:29:00;7.43;;;4.35;;
77466;SDS011;66564;42.482;25.548;2023-02-03T18:31:27;6.22;;;3.72;;
77466;SDS011;66564;42.482;25.548;2023-02-03T18:33:59;6.25;;;4.20;;
77466;SDS011;66564;42.482;25.548;2023-02-03T18:36:28;7.00;;;3.65;;
77466;SDS011;66564;42.482;25.548;2023-02-03T18:38:57;4.97;;;3.33;;
77466;SDS011;66564;42.482;25.548;2023-02-03T18:41:23;4.22;;;3.63;;
77466;SDS011;66564;42.482;25.548;2023-02-03T18:43:51;6.00;;;3.80;;
77466;SDS011;66564;42.482;25.548;2023-02-03T18:46:23;6.65;;;3.63;;
77466;SDS011;66564;42.482;25.548;2023-02-03T18:48:50;5.75;;;3.58;;
77466;SDS011;66564;42.482;25.548;2023-02-03T18:51:21;6.75;;;3.75;;
77466;SDS011;66564;42.482;25.548;2023-02-03T18:53:48;6.18;;;3.83;;
77466;SDS011;66564;42.482;25.548;2023-02-03T18:56:18;7.00;;;4.07;;
77466;SDS011;66564;42.482;25.548;2023-02-03T18:58:47;6.55;;;4.50;;
77466;SDS011;66564;42.482;25.548;2023-02-03T19:01:23;7.53;;;3.47;;
77466;SDS011;66564;42.482;25.548;2023-02-03T19:03:52;6.72;;;3.65;;
77466;SDS011;66564;42.482;25.548;2023-02-03T19:06:38;5.18;;;3.70;;
77466;SDS011;66564;42.482;25.548;2023-02-03T19:10:03;5.88;;;4.10;;
77466;SDS011;66564;42.482;25.548;2023-02-03T19:13:28;5.38;;;4.05;;
77466;SDS011;66564;42.482;25.548;2023-02-03T19:16:53;8.65;;;3.70;;
77466;SDS011;66564;42.482;25.548;2023-02-03T19:20:22;6.55;;;3.55;;
77466;SDS011;66564;42.482;25.548;2023-02-03T19:23:50;6.05;;;3.90;;
77466;SDS011;66564;42.482;25.548;2023-02-03T19:27:18;4.53;;;3.22;;
77466;SDS011;66564;42.482;25.548;2023-02-03T19:30:43;5.80;;;3.60;;